KFWC

Fairfield Municipal Airport

Fairfield, Illinois, USA
METAR KFWC 191235Z AUTO 00000KT 7SM CLR 21/21 A2997 RMK AO1 T02130213
Observed Flight Rules
Sep-19 @ 12:35 UTC (20 minutes ago) Visual Flight Rules
Visibility Clouds
7 miles
  • Clear skies
Temperatures Readings
Current 21°C / 70°F
Dewpoint 21°C / 70°F
Humidity 100%
Altimeter 29.97" Hg
Pressure 1015 hPa
Elevation 133
METAR KFWC 191235Z AUTO 00000KT 7SM CLR 21/21 A2997 RMK AO1 T02130213
Observed Flight Rules
Sep-19 @ 12:35 UTC
(20 minutes ago)
VFR
Clouds
  • Clear skies
Temperature Dewpoint
21°C / 70°F 21°C / 70°F
Humidity Altimeter Pressure
100% 29.97" Hg 1015 hPa